createdAt,value
2023-08-14T00:00:40.602Z,10.80
2023-08-14T00:01:40.667Z,10.60
2023-08-14T00:02:40.625Z,13.10
2023-08-14T00:03:40.603Z,12.90
2023-08-14T00:04:40.575Z,11.00
2023-08-14T00:05:40.554Z,18.40
2023-08-14T00:06:40.577Z,12.70
2023-08-14T00:07:40.515Z,9.10
2023-08-14T00:08:40.500Z,9.20
2023-08-14T00:09:40.488Z,11.90
2023-08-14T00:10:40.482Z,11.30
2023-08-14T00:11:40.475Z,10.00
2023-08-14T00:12:40.444Z,14.90
2023-08-14T00:13:40.434Z,9.10
2023-08-14T00:14:40.410Z,11.10
2023-08-14T00:15:40.468Z,12.20
2023-08-14T00:16:40.383Z,12.40
2023-08-14T00:17:40.409Z,14.80
2023-08-14T00:18:40.396Z,13.20
2023-08-14T00:19:40.351Z,10.70
2023-08-14T00:20:40.384Z,11.60
2023-08-14T00:21:40.335Z,10.60
2023-08-14T00:22:40.306Z,10.80
2023-08-14T00:23:40.299Z,12.80
2023-08-14T00:24:40.303Z,10.90
2023-08-14T00:25:40.278Z,12.00
2023-08-14T00:26:40.261Z,11.70
2023-08-14T00:27:40.253Z,10.80
2023-08-14T00:28:40.219Z,8.10
2023-08-14T00:29:40.238Z,11.70
2023-08-14T00:30:40.210Z,8.40
2023-08-14T00:31:40.218Z,12.00
2023-08-14T00:32:40.196Z,11.40
2023-08-14T00:33:40.216Z,13.00
2023-08-14T00:34:40.161Z,11.50
2023-08-14T00:35:40.130Z,11.10
2023-08-14T00:36:40.158Z,10.30
2023-08-14T00:37:40.195Z,8.60
2023-08-14T00:38:40.110Z,9.50
2023-08-14T00:39:40.081Z,11.90
2023-08-14T00:40:40.064Z,14.40
2023-08-14T00:41:40.058Z,10.10
2023-08-14T00:42:40.048Z,8.50
2023-08-14T00:43:40.046Z,13.20
2023-08-14T00:44:39.996Z,10.60
2023-08-14T00:45:46.208Z,11.80
2023-08-14T00:46:41.011Z,12.50
2023-08-14T00:47:40.024Z,12.10
2023-08-14T00:48:39.973Z,11.10
2023-08-14T00:49:39.949Z,10.60
2023-08-14T00:50:39.940Z,11.50
2023-08-14T00:51:39.939Z,13.20
2023-08-14T00:52:39.950Z,14.00
2023-08-14T00:53:39.907Z,12.60
2023-08-14T00:54:39.877Z,12.60
2023-08-14T00:55:39.894Z,11.20
2023-08-14T00:56:39.879Z,10.50
2023-08-14T00:57:39.861Z,14.30
2023-08-14T00:58:39.827Z,8.10
2023-08-14T00:59:39.853Z,8.50
2023-08-14T01:00:39.843Z,12.00
2023-08-14T01:01:39.819Z,14.80
2023-08-14T01:02:39.790Z,9.10
2023-08-14T01:03:39.766Z,9.70
2023-08-14T01:04:39.747Z,9.10
2023-08-14T01:05:39.748Z,11.90
2023-08-14T01:06:39.740Z,8.30
2023-08-14T01:07:39.723Z,13.20
2023-08-14T01:08:39.714Z,10.00
2023-08-14T01:09:39.706Z,15.00
2023-08-14T01:10:39.664Z,15.00
2023-08-14T01:11:39.706Z,10.80
2023-08-14T01:12:39.640Z,8.30
2023-08-14T01:13:39.647Z,11.10
2023-08-14T01:14:39.598Z,8.80
2023-08-14T01:15:39.655Z,10.30
2023-08-14T01:16:39.680Z,9.80
2023-08-14T01:17:39.593Z,12.40
2023-08-14T01:18:39.556Z,10.00
2023-08-14T01:19:39.555Z,7.90
2023-08-14T01:20:39.551Z,10.20
2023-08-14T01:21:39.525Z,10.40
2023-08-14T01:22:39.564Z,13.30
2023-08-14T01:23:39.491Z,9.20
2023-08-14T01:24:39.476Z,11.50
2023-08-14T01:25:39.500Z,10.50
2023-08-14T01:26:39.440Z,10.20
2023-08-14T01:27:39.446Z,8.80
2023-08-14T01:28:39.421Z,8.50
2023-08-14T01:29:39.475Z,13.50
2023-08-14T01:30:39.440Z,10.50
2023-08-14T01:31:39.383Z,11.70
2023-08-14T01:32:39.398Z,11.50
2023-08-14T01:33:39.356Z,10.00
2023-08-14T01:34:39.374Z,9.50
2023-08-14T01:35:39.346Z,11.70
2023-08-14T01:36:39.309Z,10.10
2023-08-14T01:37:39.324Z,8.80
2023-08-14T01:38:39.284Z,15.80
2023-08-14T01:39:39.303Z,14.20
2023-08-14T01:40:39.339Z,12.80
2023-08-14T01:41:39.252Z,9.60
2023-08-14T01:42:39.249Z,9.90
2023-08-14T01:43:39.254Z,11.60
2023-08-14T01:44:39.237Z,12.40
2023-08-14T01:45:39.210Z,14.30
2023-08-14T01:46:39.172Z,20.40
2023-08-14T01:47:39.209Z,11.50
2023-08-14T01:48:39.172Z,17.10
2023-08-14T01:49:39.167Z,10.90
2023-08-14T01:50:39.121Z,14.10
2023-08-14T01:51:39.112Z,14.80
2023-08-14T01:52:39.114Z,13.00
2023-08-14T01:53:39.125Z,12.70
2023-08-14T01:54:39.078Z,17.20
2023-08-14T01:55:39.070Z,12.20
2023-08-14T01:56:39.044Z,14.30
2023-08-14T01:57:39.063Z,14.40
2023-08-14T01:58:39.017Z,12.00
2023-08-14T01:59:39.012Z,16.40
2023-08-14T02:00:38.999Z,10.60
2023-08-14T02:01:39.001Z,13.10
2023-08-14T02:02:39.088Z,11.40
2023-08-14T02:03:39.048Z,11.20
2023-08-14T02:04:38.977Z,11.60
2023-08-14T02:05:38.933Z,11.90
2023-08-14T02:06:38.951Z,13.00
2023-08-14T02:07:38.931Z,9.80
2023-08-14T02:08:38.886Z,10.40
2023-08-14T02:09:38.895Z,9.10
2023-08-14T02:10:38.878Z,12.20
2023-08-14T02:11:38.867Z,10.50
2023-08-14T02:12:38.828Z,9.80
2023-08-14T02:13:38.818Z,20.30
2023-08-14T02:14:38.823Z,9.10
2023-08-14T02:15:38.828Z,12.90
2023-08-14T02:16:38.794Z,13.50
2023-08-14T02:17:38.805Z,14.30
2023-08-14T02:18:38.777Z,9.50
2023-08-14T02:19:38.752Z,9.00
2023-08-14T02:20:38.753Z,9.50
2023-08-14T02:21:38.741Z,13.80
2023-08-14T02:22:38.710Z,10.00
2023-08-14T02:23:38.706Z,15.30
2023-08-14T02:24:38.679Z,8.80
2023-08-14T02:25:38.683Z,12.10
2023-08-14T02:26:38.660Z,9.20
2023-08-14T02:27:38.651Z,14.50
2023-08-14T02:28:38.622Z,16.20
2023-08-14T02:29:38.635Z,12.60
2023-08-14T02:30:38.642Z,13.50
2023-08-14T02:31:38.656Z,10.70
2023-08-14T02:32:38.654Z,10.10
2023-08-14T02:33:38.593Z,9.00
2023-08-14T02:34:38.711Z,10.90
2023-08-14T02:35:38.544Z,13.10
2023-08-14T02:36:38.512Z,10.00
2023-08-14T02:37:38.520Z,12.40
2023-08-14T02:38:38.509Z,9.80
2023-08-14T02:39:38.528Z,10.60
2023-08-14T02:40:38.505Z,12.10
2023-08-14T02:41:38.463Z,12.40
2023-08-14T02:42:38.434Z,11.70
2023-08-14T02:43:38.436Z,11.90
2023-08-14T02:44:38.480Z,13.30
2023-08-14T02:45:38.428Z,10.70
2023-08-14T02:46:38.384Z,14.30
2023-08-14T02:47:38.452Z,15.10
2023-08-14T02:48:38.370Z,11.80
2023-08-14T02:49:38.378Z,10.60
2023-08-14T02:50:38.339Z,10.80
2023-08-14T02:51:38.336Z,16.00
2023-08-14T02:52:38.330Z,11.80
2023-08-14T02:53:38.305Z,13.50
2023-08-14T02:54:38.285Z,13.30
2023-08-14T02:55:38.263Z,15.10
2023-08-14T02:56:38.266Z,10.00
2023-08-14T02:57:38.246Z,11.80
2023-08-14T02:58:38.254Z,13.10
2023-08-14T02:59:38.271Z,12.80
2023-08-14T03:00:38.199Z,9.50
2023-08-14T03:01:38.186Z,10.50
2023-08-14T03:02:38.262Z,13.00
2023-08-14T03:03:38.223Z,12.40
2023-08-14T03:04:38.140Z,15.50
2023-08-14T03:05:38.137Z,13.80
2023-08-14T03:06:38.111Z,11.10
2023-08-14T03:07:38.124Z,11.40
2023-08-14T03:08:38.110Z,12.60
2023-08-14T03:09:38.077Z,10.30
2023-08-14T03:10:38.058Z,12.90
2023-08-14T03:11:38.087Z,11.40
2023-08-14T03:12:38.070Z,17.10
2023-08-14T03:13:38.023Z,11.60
2023-08-14T03:14:38.086Z,21.60
2023-08-14T03:15:38.004Z,16.20
2023-08-14T03:16:38.031Z,15.90
2023-08-14T03:17:38.045Z,12.10
2023-08-14T03:18:37.972Z,10.60
2023-08-14T03:19:37.950Z,16.70
2023-08-14T03:20:37.946Z,13.80
2023-08-14T03:21:37.936Z,14.50
2023-08-14T03:22:37.937Z,13.60
2023-08-14T03:23:37.920Z,13.30
2023-08-14T03:24:37.887Z,9.90
2023-08-14T03:25:37.866Z,12.60
2023-08-14T03:26:37.875Z,18.10
2023-08-14T03:27:37.846Z,15.70
2023-08-14T03:28:37.822Z,13.20
2023-08-14T03:29:37.806Z,16.50
2023-08-14T03:30:37.850Z,14.00
2023-08-14T03:31:37.778Z,10.90
2023-08-14T03:32:37.818Z,16.90
2023-08-14T03:33:37.801Z,11.70
2023-08-14T03:34:37.790Z,14.20
2023-08-14T03:35:37.722Z,10.00
2023-08-14T03:36:37.717Z,13.50
2023-08-14T03:37:37.723Z,12.00
2023-08-14T03:38:37.713Z,14.70
2023-08-14T03:39:37.684Z,12.00
2023-08-14T03:40:37.692Z,12.90
2023-08-14T03:41:37.671Z,15.60
2023-08-14T03:42:37.646Z,13.20
2023-08-14T03:43:37.667Z,12.10
2023-08-14T03:44:37.610Z,13.70
2023-08-14T03:45:37.629Z,13.40
2023-08-14T03:46:37.626Z,10.30
2023-08-14T03:47:37.625Z,13.10
2023-08-14T03:48:37.605Z,12.00
2023-08-14T03:49:37.576Z,12.30
2023-08-14T03:50:37.559Z,16.70
2023-08-14T03:51:37.537Z,14.60
2023-08-14T03:52:37.537Z,13.50
2023-08-14T03:53:37.496Z,12.20
2023-08-14T03:54:37.558Z,8.70
2023-08-14T03:55:37.482Z,10.50
2023-08-14T03:56:37.475Z,14.00
2023-08-14T03:57:37.459Z,16.90
2023-08-14T03:58:37.432Z,15.30
2023-08-14T03:59:37.406Z,14.50
2023-08-14T04:00:37.405Z,11.80
2023-08-14T04:01:37.463Z,14.30
2023-08-14T04:02:37.524Z,16.40
2023-08-14T04:03:37.468Z,14.50
2023-08-14T04:04:37.364Z,10.40
2023-08-14T04:05:37.332Z,11.10
2023-08-14T04:06:37.354Z,13.90
2023-08-14T04:07:37.332Z,12.20
2023-08-14T04:08:37.305Z,11.10
2023-08-14T04:09:37.282Z,12.40
2023-08-14T04:10:37.277Z,16.80
2023-08-14T04:11:37.274Z,15.70
2023-08-14T04:12:37.264Z,11.20
2023-08-14T04:13:37.224Z,13.80
2023-08-14T04:14:37.228Z,17.10
2023-08-14T04:15:37.235Z,16.70
2023-08-14T04:16:37.236Z,11.30
2023-08-14T04:17:37.223Z,15.30
2023-08-14T04:18:37.162Z,17.90
2023-08-14T04:19:37.148Z,16.00
2023-08-14T04:20:37.192Z,17.10
2023-08-14T04:21:37.114Z,15.00
2023-08-14T04:22:37.114Z,16.50
2023-08-14T04:23:37.090Z,15.20
2023-08-14T04:24:37.106Z,14.40
2023-08-14T04:25:37.109Z,13.20
2023-08-14T04:26:37.085Z,21.40
2023-08-14T04:27:37.045Z,17.70
2023-08-14T04:28:37.063Z,16.50
2023-08-14T04:29:37.042Z,19.20
2023-08-14T04:30:37.013Z,16.70
2023-08-14T04:31:37.063Z,14.30
2023-08-14T04:32:37.003Z,20.40
2023-08-14T04:33:36.998Z,19.10
2023-08-14T04:34:36.968Z,13.30
2023-08-14T04:35:37.239Z,21.00
2023-08-14T04:36:37.012Z,16.70
2023-08-14T04:37:36.946Z,17.30
2023-08-14T04:38:36.919Z,18.10
2023-08-14T04:39:36.892Z,20.90
2023-08-14T04:40:36.880Z,17.70
2023-08-14T04:41:36.871Z,18.20
2023-08-14T04:42:37.861Z,17.20
2023-08-14T04:43:36.859Z,14.10
2023-08-14T04:44:36.817Z,22.50
2023-08-14T04:45:36.841Z,20.70
2023-08-14T04:46:48.957Z,19.00
2023-08-14T04:47:37.793Z,16.40
2023-08-14T04:48:36.785Z,14.60
2023-08-14T04:49:36.777Z,16.20
2023-08-14T04:50:36.740Z,18.00
2023-08-14T04:51:36.730Z,15.10
2023-08-14T04:52:36.736Z,17.20
2023-08-14T04:53:36.701Z,21.60
2023-08-14T04:54:36.708Z,18.60
2023-08-14T04:55:36.659Z,18.00
2023-08-14T04:56:36.657Z,22.60
2023-08-14T04:57:36.646Z,21.20
2023-08-14T04:58:36.652Z,17.20
2023-08-14T04:59:36.655Z,26.10
2023-08-14T05:00:36.678Z,13.80
2023-08-14T05:01:36.624Z,17.50
2023-08-14T05:02:36.624Z,17.90
2023-08-14T05:03:36.564Z,14.20
2023-08-14T05:04:36.598Z,17.50
2023-08-14T05:05:36.541Z,18.60
2023-08-14T05:06:36.534Z,26.00
2023-08-14T05:07:36.504Z,25.40
2023-08-14T05:08:36.512Z,25.60
2023-08-14T05:09:36.478Z,27.30
2023-08-14T05:10:36.460Z,18.20
2023-08-14T05:11:36.446Z,14.20
2023-08-14T05:12:36.469Z,19.30
2023-08-14T05:13:36.438Z,19.60
2023-08-14T05:14:36.435Z,23.10
2023-08-14T05:15:36.414Z,23.10
2023-08-14T05:16:36.487Z,18.40
2023-08-14T05:17:36.471Z,17.60
2023-08-14T05:18:36.392Z,17.90
2023-08-14T05:19:36.366Z,17.90
2023-08-14T05:20:36.370Z,14.90
2023-08-14T05:21:36.321Z,15.60
2023-08-14T05:22:36.353Z,14.10
2023-08-14T05:23:36.351Z,17.30
2023-08-14T05:24:36.294Z,18.70
2023-08-14T05:25:36.266Z,18.90
2023-08-14T05:26:36.282Z,20.60
2023-08-14T05:27:36.263Z,16.10
2023-08-14T05:28:36.260Z,14.70
2023-08-14T05:29:36.202Z,14.20
2023-08-14T05:30:36.347Z,17.00
2023-08-14T05:31:36.227Z,11.40
2023-08-14T05:32:36.634Z,15.20
2023-08-14T05:33:36.820Z,17.50
2023-08-14T05:34:36.154Z,13.90
2023-08-14T05:35:36.149Z,12.50
2023-08-14T05:36:36.155Z,16.40
2023-08-14T05:37:36.153Z,12.90
2023-08-14T05:38:36.127Z,18.10
2023-08-14T05:39:36.064Z,16.40
2023-08-14T05:40:36.082Z,14.70
2023-08-14T05:41:36.079Z,10.40
2023-08-14T05:42:36.077Z,16.80
2023-08-14T05:43:36.038Z,18.40
2023-08-14T05:44:36.025Z,14.30
2023-08-14T05:45:36.113Z,18.80
2023-08-14T05:46:35.979Z,14.60
2023-08-14T05:47:36.017Z,22.80
2023-08-14T05:48:35.974Z,17.00
2023-08-14T05:49:35.948Z,17.00
2023-08-14T05:51:45.759Z,15.20
2023-08-14T05:52:45.731Z,14.70
2023-08-14T05:53:45.712Z,13.20
2023-08-14T05:54:47.352Z,15.70
2023-08-14T05:55:45.711Z,10.40
2023-08-14T05:56:45.664Z,13.10
2023-08-14T05:57:45.647Z,14.50
2023-08-14T05:58:45.707Z,12.60
2023-08-14T05:59:45.633Z,15.00
2023-08-14T06:00:45.664Z,11.20
2023-08-14T06:01:45.586Z,10.70
2023-08-14T06:02:45.629Z,16.90
2023-08-14T06:03:46.076Z,14.00
2023-08-14T06:04:45.589Z,15.60
2023-08-14T06:05:45.551Z,13.90
2023-08-14T06:06:45.597Z,12.20
2023-08-14T06:07:45.507Z,15.60
2023-08-14T06:08:45.542Z,13.90
2023-08-14T06:09:45.500Z,12.00
2023-08-14T06:10:45.492Z,14.90
2023-08-14T06:11:45.485Z,11.90
2023-08-14T06:12:45.455Z,12.20
2023-08-14T06:13:45.466Z,10.60
2023-08-14T06:14:45.446Z,13.80
2023-08-14T06:15:45.435Z,10.60
2023-08-14T06:16:45.465Z,14.90
2023-08-14T06:17:45.410Z,15.30
2023-08-14T06:18:45.389Z,14.80
2023-08-14T06:19:45.353Z,14.20
2023-08-14T06:20:45.339Z,11.20
2023-08-14T06:21:45.323Z,15.10
2023-08-14T06:22:45.336Z,13.00
2023-08-14T06:23:45.325Z,10.00
2023-08-14T06:24:45.304Z,10.20
2023-08-14T06:25:45.257Z,10.80
2023-08-14T06:26:45.265Z,11.10
2023-08-14T06:27:45.512Z,10.70
2023-08-14T06:28:45.244Z,11.40
2023-08-14T06:29:45.219Z,12.00
2023-08-14T06:30:45.240Z,12.00
2023-08-14T06:31:45.201Z,11.30
2023-08-14T06:32:45.285Z,13.20
2023-08-14T06:33:45.170Z,10.50
2023-08-14T06:34:45.150Z,9.50
2023-08-14T06:35:45.135Z,12.70
2023-08-14T06:36:45.135Z,12.00
2023-08-14T06:37:45.125Z,13.60
2023-08-14T06:38:45.107Z,10.20
2023-08-14T06:39:45.097Z,10.50
2023-08-14T06:40:45.065Z,11.90
2023-08-14T06:41:45.089Z,11.50
2023-08-14T06:42:45.035Z,14.60
2023-08-14T06:43:45.042Z,7.50
2023-08-14T06:44:45.005Z,8.50
2023-08-14T06:45:45.030Z,15.10
2023-08-14T06:46:45.024Z,14.80
2023-08-14T06:47:45.027Z,11.00
2023-08-14T06:48:44.978Z,10.40
2023-08-14T06:49:44.953Z,11.50
2023-08-14T06:50:44.997Z,10.10
2023-08-14T06:51:44.917Z,10.00
2023-08-14T06:52:44.911Z,12.30
2023-08-14T06:53:44.917Z,20.10
2023-08-14T06:54:44.886Z,10.80
2023-08-14T06:55:44.900Z,9.90
2023-08-14T06:56:44.837Z,10.80
2023-08-14T06:57:44.856Z,10.20
2023-08-14T06:58:44.834Z,8.80
2023-08-14T06:59:46.727Z,9.50
2023-08-14T07:00:44.856Z,10.00
2023-08-14T07:01:44.793Z,9.70
2023-08-14T07:02:44.864Z,10.20
2023-08-14T07:03:44.873Z,6.90
2023-08-14T07:04:44.753Z,11.40
2023-08-14T07:05:44.751Z,11.60
2023-08-14T07:06:44.723Z,6.90
2023-08-14T07:07:44.711Z,8.00
2023-08-14T07:08:44.701Z,9.50
2023-08-14T07:09:44.718Z,11.20
2023-08-14T07:10:44.672Z,11.30
2023-08-14T07:11:44.662Z,10.00
2023-08-14T07:12:44.632Z,6.60
2023-08-14T07:13:45.822Z,11.30
2023-08-14T07:14:46.264Z,10.10
2023-08-14T07:15:44.606Z,10.00
2023-08-14T07:16:44.618Z,11.30
2023-08-14T07:17:44.596Z,8.50
2023-08-14T07:18:44.565Z,8.70
2023-08-14T07:19:44.546Z,7.20
2023-08-14T07:20:44.533Z,11.80
2023-08-14T07:21:44.526Z,10.70
2023-08-14T07:22:44.540Z,7.40
2023-08-14T07:23:44.513Z,9.40
2023-08-14T07:24:44.472Z,9.10
2023-08-14T07:25:44.471Z,9.30
2023-08-14T07:26:44.441Z,8.40
2023-08-14T07:27:44.448Z,10.60
2023-08-14T07:28:44.437Z,9.20
2023-08-14T07:29:45.150Z,8.80
2023-08-14T07:30:44.433Z,10.40
2023-08-14T07:31:44.413Z,13.10
2023-08-14T07:32:44.418Z,9.00
2023-08-14T07:33:44.356Z,7.70
2023-08-14T07:34:44.341Z,9.30
2023-08-14T07:35:44.348Z,9.80
2023-08-14T07:36:44.325Z,10.90
2023-08-14T07:37:44.323Z,9.50
2023-08-14T07:38:44.278Z,8.30
2023-08-14T07:39:44.264Z,8.80
2023-08-14T07:40:44.248Z,9.10
2023-08-14T07:41:44.254Z,15.40
2023-08-14T07:42:44.235Z,10.90
2023-08-14T07:43:44.226Z,10.80
2023-08-14T07:44:44.196Z,9.60
2023-08-14T07:45:44.214Z,13.20
2023-08-14T07:46:44.193Z,9.70
2023-08-14T07:47:44.217Z,10.60
2023-08-14T07:48:44.143Z,13.00
2023-08-14T07:49:44.158Z,9.50
2023-08-14T07:50:44.148Z,8.90
2023-08-14T07:51:44.124Z,10.00
2023-08-14T07:52:44.089Z,8.10
2023-08-14T07:53:44.110Z,13.30
2023-08-14T07:54:44.064Z,11.90
2023-08-14T07:55:44.076Z,11.30
2023-08-14T07:56:46.591Z,10.00
2023-08-14T07:57:44.028Z,11.30
2023-08-14T07:58:44.000Z,9.10
2023-08-14T07:59:44.031Z,9.10
2023-08-14T08:00:44.006Z,7.80
2023-08-14T08:01:44.057Z,9.50
2023-08-14T08:02:43.975Z,8.70
2023-08-14T08:03:43.955Z,10.90
2023-08-14T08:04:43.946Z,11.00
2023-08-14T08:05:44.019Z,11.80
2023-08-14T08:06:44.873Z,12.40
2023-08-14T08:07:43.889Z,7.10
2023-08-14T08:08:45.885Z,7.30
2023-08-14T08:09:43.881Z,8.90
2023-08-14T08:10:43.836Z,9.80
2023-08-14T08:11:43.842Z,13.50
2023-08-14T08:12:43.828Z,12.90
2023-08-14T08:13:43.907Z,9.50
2023-08-14T08:14:43.808Z,10.20
2023-08-14T08:15:43.817Z,11.80
2023-08-14T08:16:43.772Z,11.90
2023-08-14T08:17:43.768Z,9.40
2023-08-14T08:18:43.752Z,13.80
2023-08-14T08:19:43.755Z,9.40
2023-08-14T08:20:43.732Z,9.20
2023-08-14T08:21:43.698Z,10.40
2023-08-14T08:22:43.702Z,11.50
2023-08-14T08:23:43.679Z,10.80
2023-08-14T08:24:43.648Z,12.70
2023-08-14T08:25:43.660Z,9.10
2023-08-14T08:26:43.648Z,6.80
2023-08-14T08:27:43.625Z,7.10
2023-08-14T08:28:43.609Z,11.10
2023-08-14T08:29:43.587Z,7.30
2023-08-14T08:30:43.589Z,11.30
2023-08-14T08:31:43.614Z,8.20
2023-08-14T08:32:43.570Z,9.70
2023-08-14T08:33:43.531Z,8.20
2023-08-14T08:34:43.511Z,9.10
2023-08-14T08:35:43.522Z,10.00
2023-08-14T08:36:43.490Z,9.60
2023-08-14T08:37:43.497Z,7.00
2023-08-14T08:38:43.467Z,7.20
2023-08-14T08:39:43.465Z,9.50
2023-08-14T08:40:43.438Z,8.90
2023-08-14T08:41:43.434Z,10.70
2023-08-14T08:42:43.405Z,11.10
2023-08-14T08:43:43.410Z,8.20
2023-08-14T08:44:43.390Z,7.40
2023-08-14T08:45:43.408Z,8.80
2023-08-14T08:46:44.469Z,7.30
2023-08-14T08:47:43.374Z,8.50
2023-08-14T08:48:43.320Z,8.10
2023-08-14T08:49:44.340Z,14.80
2023-08-14T08:50:45.665Z,11.00
2023-08-14T08:51:43.325Z,8.70
2023-08-14T08:52:43.285Z,9.80
2023-08-14T08:53:43.275Z,14.70
2023-08-14T08:54:43.256Z,12.90
2023-08-14T08:55:43.261Z,13.30
2023-08-14T08:56:43.206Z,10.40
2023-08-14T08:57:43.210Z,11.40
2023-08-14T08:58:43.193Z,9.00
2023-08-14T08:59:43.186Z,8.50
2023-08-14T09:00:43.191Z,12.20
2023-08-14T09:01:43.250Z,11.00
2023-08-14T09:02:47.073Z,10.70
2023-08-14T09:03:43.258Z,7.90
2023-08-14T09:04:43.189Z,11.00
2023-08-14T09:05:43.117Z,10.90
2023-08-14T09:06:43.086Z,9.90
2023-08-14T09:07:43.108Z,8.50
2023-08-14T09:08:43.063Z,11.20
2023-08-14T09:09:43.056Z,12.80
2023-08-14T09:10:43.023Z,12.20
2023-08-14T09:11:43.028Z,8.10
2023-08-14T09:12:43.005Z,12.50
2023-08-14T09:13:42.998Z,10.50
2023-08-14T09:14:42.990Z,10.70
2023-08-14T09:15:42.965Z,15.30
2023-08-14T09:16:42.947Z,14.40
2023-08-14T09:17:42.964Z,12.90
2023-08-14T09:18:42.935Z,7.40
2023-08-14T09:19:42.947Z,12.30
2023-08-14T09:20:42.891Z,14.30
2023-08-14T09:21:42.911Z,12.10
2023-08-14T09:22:42.871Z,14.10
2023-08-14T09:23:42.867Z,9.90
2023-08-14T09:24:42.844Z,12.70
2023-08-14T09:25:42.833Z,10.60
2023-08-14T09:26:42.819Z,9.10
2023-08-14T09:27:42.867Z,11.40
2023-08-14T09:28:42.814Z,12.00
2023-08-14T09:29:42.782Z,13.50
2023-08-14T09:30:42.767Z,8.30
2023-08-14T09:31:42.788Z,6.80
2023-08-14T09:32:42.791Z,13.30
2023-08-14T09:33:42.729Z,7.70
2023-08-14T09:34:42.701Z,9.70
2023-08-14T09:35:42.715Z,7.90
2023-08-14T09:36:42.672Z,11.10
2023-08-14T09:37:42.710Z,14.00
2023-08-14T09:38:42.655Z,11.60
2023-08-14T09:39:42.646Z,12.70
2023-08-14T09:40:42.638Z,10.80
2023-08-14T09:41:42.633Z,7.40
2023-08-14T09:42:42.626Z,9.10
2023-08-14T09:43:42.585Z,9.10
2023-08-14T09:44:42.576Z,11.60
2023-08-14T09:45:42.585Z,11.30
2023-08-14T09:46:42.601Z,10.50
2023-08-14T09:47:42.687Z,10.20
2023-08-14T09:48:42.560Z,10.40
2023-08-14T09:49:42.524Z,11.20
2023-08-14T09:50:42.492Z,9.60
2023-08-14T09:51:42.512Z,7.00
2023-08-14T09:52:42.477Z,6.50
2023-08-14T09:53:42.456Z,7.60
2023-08-14T09:54:42.435Z,11.10
2023-08-14T09:55:42.474Z,10.20
2023-08-14T09:56:42.415Z,8.60
2023-08-14T09:57:42.390Z,5.00
2023-08-14T09:58:42.382Z,7.60
2023-08-14T09:59:42.376Z,7.10
2023-08-14T10:00:42.439Z,9.50
2023-08-14T10:01:42.343Z,6.80
2023-08-14T10:02:42.486Z,7.20
2023-08-14T10:03:42.315Z,6.30
2023-08-14T10:04:42.308Z,11.80
2023-08-14T10:05:42.325Z,7.30
2023-08-14T10:06:42.267Z,7.40
2023-08-14T10:07:42.291Z,9.70
2023-08-14T10:08:42.250Z,7.80
2023-08-14T10:09:42.242Z,8.20
2023-08-14T10:10:44.849Z,6.20
2023-08-14T10:11:43.202Z,8.30
2023-08-14T10:12:42.199Z,7.90
2023-08-14T10:13:42.248Z,7.20
2023-08-14T10:14:42.180Z,8.50
2023-08-14T10:15:42.169Z,8.20
2023-08-14T10:16:42.178Z,7.10
2023-08-14T10:17:42.168Z,7.80
2023-08-14T10:18:42.115Z,8.10
2023-08-14T10:19:42.127Z,8.40
2023-08-14T10:20:42.092Z,7.70
2023-08-14T10:21:42.107Z,7.70
2023-08-14T10:22:42.059Z,8.80
2023-08-14T10:23:42.065Z,7.00
2023-08-14T10:24:42.047Z,11.70
2023-08-14T10:25:42.013Z,7.40
2023-08-14T10:26:42.030Z,8.70
2023-08-14T10:27:42.014Z,10.50
2023-08-14T10:28:41.990Z,9.70
2023-08-14T10:29:41.988Z,7.50
2023-08-14T10:30:41.985Z,9.60
2023-08-14T10:31:41.937Z,7.60
2023-08-14T10:32:41.920Z,7.50
2023-08-14T10:33:41.930Z,8.00
2023-08-14T10:34:41.908Z,9.60
2023-08-14T10:35:41.914Z,11.70
2023-08-14T10:36:41.871Z,6.20
2023-08-14T10:37:41.877Z,8.60
2023-08-14T10:38:41.880Z,12.10
2023-08-14T10:39:41.849Z,8.80
2023-08-14T10:40:41.837Z,8.90
2023-08-14T10:41:41.809Z,9.10
2023-08-14T10:42:41.805Z,9.60
2023-08-14T10:43:41.793Z,7.80
2023-08-14T10:44:41.768Z,10.80
2023-08-14T10:45:41.760Z,6.90
2023-08-14T10:46:41.837Z,8.10
2023-08-14T10:47:41.769Z,7.00
2023-08-14T10:48:41.721Z,8.60
2023-08-14T10:49:41.717Z,9.00
2023-08-14T10:50:41.690Z,8.00
2023-08-14T10:51:41.697Z,9.10
2023-08-14T10:52:41.660Z,6.30
2023-08-14T10:53:41.648Z,8.80
2023-08-14T10:54:41.657Z,12.60
2023-08-14T10:55:41.629Z,7.90
2023-08-14T10:56:41.635Z,5.60
2023-08-14T10:57:41.599Z,8.40
2023-08-14T10:58:41.602Z,5.80
2023-08-14T10:59:41.568Z,6.20
2023-08-14T11:00:42.478Z,6.50
2023-08-14T11:01:41.634Z,7.40
2023-08-14T11:02:41.556Z,8.90
2023-08-14T11:03:41.517Z,7.20
2023-08-14T11:04:41.531Z,6.60
2023-08-14T11:05:41.558Z,5.50
2023-08-14T11:06:41.493Z,7.10
2023-08-14T11:07:41.486Z,5.80
2023-08-14T11:08:41.454Z,4.20
2023-08-14T11:09:41.535Z,7.20
2023-08-14T11:10:41.451Z,5.50
2023-08-14T11:11:41.418Z,7.90
2023-08-14T11:12:41.408Z,8.60
2023-08-14T11:13:41.393Z,4.90
2023-08-14T11:14:41.423Z,4.50
2023-08-14T11:15:41.396Z,8.40
2023-08-14T11:16:41.385Z,7.70
2023-08-14T11:17:41.387Z,6.50
2023-08-14T11:18:41.334Z,4.90
2023-08-14T11:19:41.337Z,5.90
2023-08-14T11:20:41.308Z,5.90
2023-08-14T11:21:41.290Z,5.00
2023-08-14T11:22:41.284Z,5.90
2023-08-14T11:23:41.274Z,4.90
2023-08-14T11:24:41.291Z,3.50
2023-08-14T11:25:41.239Z,6.80
2023-08-14T11:26:41.250Z,7.20
2023-08-14T11:27:41.216Z,7.60
2023-08-14T11:28:41.236Z,6.70
2023-08-14T11:30:41.184Z,4.40
2023-08-14T11:31:42.048Z,4.70
2023-08-14T11:32:42.232Z,5.50
2023-08-14T11:33:41.164Z,4.80
2023-08-14T11:34:41.142Z,9.40
2023-08-14T11:35:41.117Z,7.20
2023-08-14T11:36:41.134Z,4.10
2023-08-14T11:37:41.133Z,4.60
2023-08-14T11:38:41.099Z,7.20
2023-08-14T11:39:41.066Z,5.80
2023-08-14T11:40:41.066Z,7.10
2023-08-14T11:41:41.046Z,6.70
2023-08-14T11:42:41.065Z,6.90
2023-08-14T11:43:46.491Z,7.90
2023-08-14T11:44:42.010Z,3.90
2023-08-14T11:45:40.995Z,6.70
2023-08-14T11:46:40.976Z,6.70
2023-08-14T11:47:41.038Z,6.60
2023-08-14T11:48:40.953Z,4.80
2023-08-14T11:49:40.930Z,6.20
2023-08-14T11:50:40.923Z,6.10
2023-08-14T11:51:47.968Z,6.30
2023-08-14T11:52:40.914Z,6.90
2023-08-14T11:53:40.882Z,7.30
2023-08-14T11:54:40.879Z,8.50
2023-08-14T11:55:40.863Z,7.80
2023-08-14T11:56:40.874Z,6.20
2023-08-14T11:57:40.836Z,7.50
2023-08-14T11:58:42.084Z,5.30
2023-08-14T11:59:40.800Z,5.80
2023-08-14T12:00:40.807Z,7.30
2023-08-14T12:01:40.874Z,5.80
2023-08-14T12:02:40.807Z,6.80
2023-08-14T12:03:40.769Z,7.60
2023-08-14T12:04:40.773Z,6.10
2023-08-14T12:05:40.956Z,10.10
2023-08-14T12:06:40.750Z,5.90
2023-08-14T12:07:40.727Z,5.80
2023-08-14T12:08:40.699Z,3.90
2023-08-14T12:09:40.697Z,7.80
2023-08-14T12:10:40.698Z,5.50
2023-08-14T12:11:40.667Z,8.20
2023-08-14T12:12:48.714Z,7.30
2023-08-14T12:13:41.638Z,6.20
2023-08-14T12:14:40.646Z,8.30
2023-08-14T12:15:40.678Z,7.20
2023-08-14T12:16:40.732Z,5.10
2023-08-14T12:17:40.655Z,5.70
2023-08-14T12:18:40.639Z,6.60
2023-08-14T12:19:40.576Z,9.20
2023-08-14T12:20:40.554Z,6.30
2023-08-14T12:21:40.586Z,6.70
2023-08-14T12:22:42.677Z,10.50
2023-08-14T12:23:40.506Z,7.10
2023-08-14T12:24:40.524Z,7.70
2023-08-14T12:25:40.500Z,6.10
2023-08-14T12:26:40.468Z,7.60
2023-08-14T12:27:40.462Z,4.90
2023-08-14T12:28:40.480Z,6.00
2023-08-14T12:29:40.498Z,7.20
2023-08-14T12:30:40.427Z,6.90
2023-08-14T12:31:40.442Z,5.90
2023-08-14T12:32:40.436Z,4.90
2023-08-14T12:33:40.416Z,5.30
2023-08-14T12:34:40.373Z,7.60
2023-08-14T12:35:40.363Z,5.60
2023-08-14T12:36:40.353Z,6.70
2023-08-14T12:37:40.354Z,6.70
2023-08-14T12:38:40.353Z,6.40
2023-08-14T12:39:40.304Z,6.30
2023-08-14T12:40:40.318Z,4.50
2023-08-14T12:41:40.294Z,6.20
2023-08-14T12:42:40.323Z,7.70
2023-08-14T12:43:41.170Z,6.90
2023-08-14T12:44:40.265Z,6.00
2023-08-14T12:45:40.227Z,6.10
2023-08-14T12:46:40.278Z,7.40
2023-08-14T12:47:40.311Z,4.90
2023-08-14T12:48:40.235Z,7.80
2023-08-14T12:49:40.212Z,9.40
2023-08-14T12:50:40.183Z,6.50
2023-08-14T12:51:40.160Z,7.10
2023-08-14T12:52:40.244Z,5.90
2023-08-14T12:53:40.134Z,5.10
2023-08-14T12:54:40.309Z,7.70
2023-08-14T12:55:40.122Z,11.20
2023-08-14T12:56:40.799Z,6.30
2023-08-14T12:57:40.099Z,9.90
2023-08-14T12:58:40.074Z,8.20
2023-08-14T12:59:40.049Z,7.40
2023-08-14T13:00:40.086Z,6.60
2023-08-14T13:01:40.077Z,7.70
2023-08-14T13:02:40.091Z,8.30
2023-08-14T13:03:40.041Z,5.80
2023-08-14T13:05:39.997Z,6.00